sensor_id;sensor_type;location;lat;lon;timestamp;P1;durP1;ratioP1;P2;durP2;ratioP2
249;SDS011;109;19.806;-70.704;2023-02-03T00:01:50;13.97;;;4.33;;
249;SDS011;109;19.806;-70.704;2023-02-03T00:04:16;11.73;;;4.07;;
249;SDS011;109;19.806;-70.704;2023-02-03T00:06:43;18.03;;;5.20;;
249;SDS011;109;19.806;-70.704;2023-02-03T00:09:10;12.47;;;4.90;;
249;SDS011;109;19.806;-70.704;2023-02-03T00:11:38;20.83;;;5.03;;
249;SDS011;109;19.806;-70.704;2023-02-03T00:14:04;17.00;;;4.73;;
249;SDS011;109;19.806;-70.704;2023-02-03T00:16:32;16.20;;;4.73;;
249;SDS011;109;19.806;-70.704;2023-02-03T00:18:59;18.87;;;4.37;;
249;SDS011;109;19.806;-70.704;2023-02-03T00:21:26;12.30;;;3.90;;
249;SDS011;109;19.806;-70.704;2023-02-03T00:23:52;15.77;;;4.40;;
249;SDS011;109;19.806;-70.704;2023-02-03T00:26:19;12.07;;;4.40;;
249;SDS011;109;19.806;-70.704;2023-02-03T00:28:46;17.90;;;4.70;;
249;SDS011;109;19.806;-70.704;2023-02-03T00:31:20;13.10;;;3.80;;
249;SDS011;109;19.806;-70.704;2023-02-03T00:34:09;19.73;;;4.57;;
249;SDS011;109;19.806;-70.704;2023-02-03T00:36:43;18.00;;;4.67;;
249;SDS011;109;19.806;-70.704;2023-02-03T00:39:23;8.37;;;3.47;;
249;SDS011;109;19.806;-70.704;2023-02-03T00:41:49;16.20;;;4.30;;
249;SDS011;109;19.806;-70.704;2023-02-03T00:44:29;14.10;;;3.53;;
249;SDS011;109;19.806;-70.704;2023-02-03T00:46:56;11.10;;;3.40;;
249;SDS011;109;19.806;-70.704;2023-02-03T00:49:37;11.80;;;3.80;;
249;SDS011;109;19.806;-70.704;2023-02-03T00:52:04;15.77;;;3.87;;
249;SDS011;109;19.806;-70.704;2023-02-03T00:54:44;16.27;;;3.80;;
249;SDS011;109;19.806;-70.704;2023-02-03T00:57:10;11.50;;;5.63;;
249;SDS011;109;19.806;-70.704;2023-02-03T00:59:50;16.30;;;3.80;;
249;SDS011;109;19.806;-70.704;2023-02-03T01:02:16;9.00;;;3.63;;
249;SDS011;109;19.806;-70.704;2023-02-03T01:04:57;12.87;;;4.30;;
249;SDS011;109;19.806;-70.704;2023-02-03T01:07:25;11.10;;;3.77;;
249;SDS011;109;19.806;-70.704;2023-02-03T01:10:05;16.43;;;3.90;;
249;SDS011;109;19.806;-70.704;2023-02-03T01:12:32;15.43;;;3.77;;
249;SDS011;109;19.806;-70.704;2023-02-03T01:15:12;9.97;;;5.00;;
249;SDS011;109;19.806;-70.704;2023-02-03T01:17:38;13.03;;;3.97;;
249;SDS011;109;19.806;-70.704;2023-02-03T01:20:19;15.53;;;4.43;;
249;SDS011;109;19.806;-70.704;2023-02-03T01:22:53;14.83;;;3.67;;
249;SDS011;109;19.806;-70.704;2023-02-03T01:25:34;14.77;;;3.80;;
249;SDS011;109;19.806;-70.704;2023-02-03T01:28:14;9.30;;;3.50;;
249;SDS011;109;19.806;-70.704;2023-02-03T01:30:40;21.80;;;4.60;;
249;SDS011;109;19.806;-70.704;2023-02-03T01:33:26;10.90;;;3.20;;
249;SDS011;109;19.806;-70.704;2023-02-03T01:36:09;14.33;;;3.53;;
249;SDS011;109;19.806;-70.704;2023-02-03T01:38:50;10.93;;;3.23;;
249;SDS011;109;19.806;-70.704;2023-02-03T01:41:18;12.93;;;3.30;;
249;SDS011;109;19.806;-70.704;2023-02-03T01:44:00;11.13;;;3.83;;
249;SDS011;109;19.806;-70.704;2023-02-03T01:46:54;10.93;;;3.83;;
249;SDS011;109;19.806;-70.704;2023-02-03T01:49:34;11.63;;;3.50;;
249;SDS011;109;19.806;-70.704;2023-02-03T01:52:03;14.97;;;3.80;;
249;SDS011;109;19.806;-70.704;2023-02-03T01:54:45;12.90;;;3.40;;
249;SDS011;109;19.806;-70.704;2023-02-03T01:57:23;8.97;;;3.40;;
249;SDS011;109;19.806;-70.704;2023-02-03T02:00:17;9.57;;;3.50;;
249;SDS011;109;19.806;-70.704;2023-02-03T02:02:54;10.53;;;3.50;;
249;SDS011;109;19.806;-70.704;2023-02-03T02:05:51;14.03;;;3.80;;
249;SDS011;109;19.806;-70.704;2023-02-03T02:08:39;12.17;;;3.17;;
249;SDS011;109;19.806;-70.704;2023-02-03T02:11:16;11.27;;;3.23;;
249;SDS011;109;19.806;-70.704;2023-02-03T02:13:59;17.03;;;3.57;;
249;SDS011;109;19.806;-70.704;2023-02-03T02:28:05;9.60;;;3.77;;
249;SDS011;109;19.806;-70.704;2023-02-03T02:31:14;10.33;;;3.30;;
249;SDS011;109;19.806;-70.704;2023-02-03T02:40:24;8.40;;;3.13;;
249;SDS011;109;19.806;-70.704;2023-02-03T02:43:18;11.07;;;3.00;;
249;SDS011;109;19.806;-70.704;2023-02-03T02:45:59;9.50;;;3.20;;
249;SDS011;109;19.806;-70.704;2023-02-03T02:51:40;8.40;;;3.00;;
249;SDS011;109;19.806;-70.704;2023-02-03T02:54:23;8.30;;;3.07;;
249;SDS011;109;19.806;-70.704;2023-02-03T02:57:00;11.07;;;3.20;;
249;SDS011;109;19.806;-70.704;2023-02-03T02:59:44;11.40;;;3.10;;
249;SDS011;109;19.806;-70.704;2023-02-03T03:02:17;14.20;;;3.80;;
249;SDS011;109;19.806;-70.704;2023-02-03T03:05:00;12.47;;;3.20;;
249;SDS011;109;19.806;-70.704;2023-02-03T03:07:44;13.50;;;3.30;;
249;SDS011;109;19.806;-70.704;2023-02-03T03:10:33;12.30;;;3.20;;
249;SDS011;109;19.806;-70.704;2023-02-03T03:13:17;9.60;;;2.80;;
249;SDS011;109;19.806;-70.704;2023-02-03T03:15:57;20.87;;;4.83;;
249;SDS011;109;19.806;-70.704;2023-02-03T03:18:45;8.17;;;3.20;;
249;SDS011;109;19.806;-70.704;2023-02-03T03:21:29;11.33;;;3.77;;
249;SDS011;109;19.806;-70.704;2023-02-03T03:24:15;15.50;;;4.50;;
249;SDS011;109;19.806;-70.704;2023-02-03T03:26:57;11.87;;;3.20;;
249;SDS011;109;19.806;-70.704;2023-02-03T03:29:45;16.20;;;3.33;;
249;SDS011;109;19.806;-70.704;2023-02-03T03:32:22;24.67;;;4.50;;
249;SDS011;109;19.806;-70.704;2023-02-03T03:35:10;10.13;;;3.10;;
249;SDS011;109;19.806;-70.704;2023-02-03T03:38:06;16.60;;;3.83;;
249;SDS011;109;19.806;-70.704;2023-02-03T03:40:58;16.97;;;3.70;;
249;SDS011;109;19.806;-70.704;2023-02-03T03:43:43;8.40;;;3.10;;
249;SDS011;109;19.806;-70.704;2023-02-03T03:46:12;14.83;;;3.47;;
249;SDS011;109;19.806;-70.704;2023-02-03T03:49:01;9.97;;;3.07;;
249;SDS011;109;19.806;-70.704;2023-02-03T03:51:39;11.93;;;3.37;;
249;SDS011;109;19.806;-70.704;2023-02-03T03:54:29;8.20;;;3.20;;
249;SDS011;109;19.806;-70.704;2023-02-03T03:57:16;13.73;;;3.53;;
249;SDS011;109;19.806;-70.704;2023-02-03T04:00:00;20.00;;;3.93;;
249;SDS011;109;19.806;-70.704;2023-02-03T04:02:38;14.53;;;3.77;;
249;SDS011;109;19.806;-70.704;2023-02-03T04:05:21;19.60;;;3.57;;
249;SDS011;109;19.806;-70.704;2023-02-03T04:07:49;17.33;;;3.40;;
249;SDS011;109;19.806;-70.704;2023-02-03T04:10:39;7.97;;;3.37;;
249;SDS011;109;19.806;-70.704;2023-02-03T04:13:20;10.57;;;3.30;;
249;SDS011;109;19.806;-70.704;2023-02-03T04:15:46;7.63;;;2.87;;
249;SDS011;109;19.806;-70.704;2023-02-03T04:18:28;7.37;;;3.20;;
249;SDS011;109;19.806;-70.704;2023-02-03T04:20:55;20.50;;;4.00;;
249;SDS011;109;19.806;-70.704;2023-02-03T04:23:36;21.10;;;3.90;;
249;SDS011;109;19.806;-70.704;2023-02-03T04:26:02;15.10;;;3.50;;
249;SDS011;109;19.806;-70.704;2023-02-03T04:28:42;20.20;;;4.17;;
249;SDS011;109;19.806;-70.704;2023-02-03T04:31:09;15.80;;;4.73;;
249;SDS011;109;19.806;-70.704;2023-02-03T04:33:56;22.13;;;4.20;;
249;SDS011;109;19.806;-70.704;2023-02-03T04:36:30;23.43;;;5.00;;
249;SDS011;109;19.806;-70.704;2023-02-03T04:39:10;18.37;;;4.80;;
249;SDS011;109;19.806;-70.704;2023-02-03T04:41:36;24.80;;;4.23;;
249;SDS011;109;19.806;-70.704;2023-02-03T04:44:16;11.93;;;4.53;;
249;SDS011;109;19.806;-70.704;2023-02-03T04:46:43;14.77;;;4.10;;
249;SDS011;109;19.806;-70.704;2023-02-03T04:49:23;12.87;;;4.00;;
249;SDS011;109;19.806;-70.704;2023-02-03T04:51:57;11.60;;;3.70;;
249;SDS011;109;19.806;-70.704;2023-02-03T04:54:37;11.63;;;3.60;;
249;SDS011;109;19.806;-70.704;2023-02-03T04:57:04;12.57;;;3.30;;
249;SDS011;109;19.806;-70.704;2023-02-03T04:59:44;8.43;;;3.30;;
249;SDS011;109;19.806;-70.704;2023-02-03T05:02:10;12.43;;;3.30;;
249;SDS011;109;19.806;-70.704;2023-02-03T05:04:51;14.33;;;3.60;;
249;SDS011;109;19.806;-70.704;2023-02-03T05:07:17;16.97;;;3.63;;
249;SDS011;109;19.806;-70.704;2023-02-03T05:09:57;5.53;;;3.13;;
249;SDS011;109;19.806;-70.704;2023-02-03T05:12:24;7.17;;;3.00;;
249;SDS011;109;19.806;-70.704;2023-02-03T05:15:05;12.20;;;2.90;;
249;SDS011;109;19.806;-70.704;2023-02-03T05:17:32;10.97;;;3.40;;
249;SDS011;109;19.806;-70.704;2023-02-03T05:20:13;15.13;;;2.80;;
249;SDS011;109;19.806;-70.704;2023-02-03T05:22:40;11.87;;;3.20;;
249;SDS011;109;19.806;-70.704;2023-02-03T05:25:20;7.00;;;3.03;;
249;SDS011;109;19.806;-70.704;2023-02-03T05:27:47;11.10;;;3.47;;
249;SDS011;109;19.806;-70.704;2023-02-03T05:30:27;12.47;;;3.20;;
249;SDS011;109;19.806;-70.704;2023-02-03T05:33:14;18.77;;;4.03;;
249;SDS011;109;19.806;-70.704;2023-02-03T05:35:54;13.03;;;3.27;;
249;SDS011;109;19.806;-70.704;2023-02-03T05:38:35;9.70;;;3.33;;
249;SDS011;109;19.806;-70.704;2023-02-03T05:41:01;14.53;;;3.90;;
249;SDS011;109;19.806;-70.704;2023-02-03T05:44:07;16.80;;;3.67;;
249;SDS011;109;19.806;-70.704;2023-02-03T05:46:41;18.70;;;3.63;;
249;SDS011;109;19.806;-70.704;2023-02-03T05:49:21;10.70;;;3.17;;
249;SDS011;109;19.806;-70.704;2023-02-03T05:51:49;15.47;;;3.47;;
249;SDS011;109;19.806;-70.704;2023-02-03T05:54:31;14.90;;;3.73;;
249;SDS011;109;19.806;-70.704;2023-02-03T05:56:57;7.37;;;2.70;;
249;SDS011;109;19.806;-70.704;2023-02-03T05:59:37;10.63;;;3.37;;
249;SDS011;109;19.806;-70.704;2023-02-03T06:02:03;9.90;;;3.73;;
249;SDS011;109;19.806;-70.704;2023-02-03T06:04:43;18.60;;;4.10;;
249;SDS011;109;19.806;-70.704;2023-02-03T06:07:09;13.73;;;3.93;;
249;SDS011;109;19.806;-70.704;2023-02-03T06:09:50;9.23;;;3.30;;
249;SDS011;109;19.806;-70.704;2023-02-03T06:12:16;9.30;;;3.70;;
249;SDS011;109;19.806;-70.704;2023-02-03T06:14:56;19.40;;;3.80;;
249;SDS011;109;19.806;-70.704;2023-02-03T06:17:22;14.67;;;3.50;;
249;SDS011;109;19.806;-70.704;2023-02-03T06:20:05;12.73;;;3.23;;
249;SDS011;109;19.806;-70.704;2023-02-03T06:22:40;14.93;;;3.73;;
249;SDS011;109;19.806;-70.704;2023-02-03T06:25:21;10.90;;;3.03;;
249;SDS011;109;19.806;-70.704;2023-02-03T06:27:49;7.07;;;3.10;;
249;SDS011;109;19.806;-70.704;2023-02-03T06:30:29;11.53;;;2.90;;
249;SDS011;109;19.806;-70.704;2023-02-03T06:33:16;11.07;;;3.03;;
249;SDS011;109;19.806;-70.704;2023-02-03T06:35:57;11.73;;;2.97;;
249;SDS011;109;19.806;-70.704;2023-02-03T06:38:37;17.33;;;3.10;;
249;SDS011;109;19.806;-70.704;2023-02-03T06:41:03;12.00;;;3.10;;
249;SDS011;109;19.806;-70.704;2023-02-03T06:43:44;15.37;;;3.20;;
249;SDS011;109;19.806;-70.704;2023-02-03T06:46:10;15.77;;;3.10;;
249;SDS011;109;19.806;-70.704;2023-02-03T06:48:50;13.63;;;3.47;;
249;SDS011;109;19.806;-70.704;2023-02-03T06:51:16;12.87;;;2.80;;
249;SDS011;109;19.806;-70.704;2023-02-03T06:53:56;16.93;;;3.20;;
249;SDS011;109;19.806;-70.704;2023-02-03T06:56:23;11.10;;;3.70;;
249;SDS011;109;19.806;-70.704;2023-02-03T06:59:04;11.57;;;3.50;;
249;SDS011;109;19.806;-70.704;2023-02-03T07:01:31;10.67;;;3.00;;
249;SDS011;109;19.806;-70.704;2023-02-03T07:04:10;9.07;;;2.90;;
249;SDS011;109;19.806;-70.704;2023-02-03T07:06:36;8.97;;;2.70;;
249;SDS011;109;19.806;-70.704;2023-02-03T07:09:16;15.40;;;3.30;;
249;SDS011;109;19.806;-70.704;2023-02-03T07:11:42;20.03;;;3.50;;
249;SDS011;109;19.806;-70.704;2023-02-03T07:14:23;12.10;;;3.60;;
249;SDS011;109;19.806;-70.704;2023-02-03T07:16:49;9.67;;;2.90;;
249;SDS011;109;19.806;-70.704;2023-02-03T07:19:29;14.87;;;3.00;;
249;SDS011;109;19.806;-70.704;2023-02-03T07:22:02;8.23;;;2.80;;
249;SDS011;109;19.806;-70.704;2023-02-03T07:24:42;7.90;;;3.07;;
249;SDS011;109;19.806;-70.704;2023-02-03T07:27:09;9.13;;;2.60;;
249;SDS011;109;19.806;-70.704;2023-02-03T07:29:49;7.87;;;2.77;;
249;SDS011;109;19.806;-70.704;2023-02-03T07:32:15;14.23;;;3.00;;
249;SDS011;109;19.806;-70.704;2023-02-03T07:35:02;10.30;;;3.00;;
249;SDS011;109;19.806;-70.704;2023-02-03T07:37:35;13.17;;;3.00;;
249;SDS011;109;19.806;-70.704;2023-02-03T07:40:15;11.67;;;2.87;;
249;SDS011;109;19.806;-70.704;2023-02-03T07:42:43;11.13;;;2.53;;
249;SDS011;109;19.806;-70.704;2023-02-03T07:45:25;7.53;;;2.67;;
249;SDS011;109;19.806;-70.704;2023-02-03T07:47:52;14.70;;;3.67;;
249;SDS011;109;19.806;-70.704;2023-02-03T07:50:31;11.43;;;3.07;;
249;SDS011;109;19.806;-70.704;2023-02-03T07:52:58;10.47;;;3.10;;
249;SDS011;109;19.806;-70.704;2023-02-03T07:55:40;11.80;;;3.13;;
249;SDS011;109;19.806;-70.704;2023-02-03T07:58:20;13.53;;;3.50;;
249;SDS011;109;19.806;-70.704;2023-02-03T08:00:46;11.57;;;2.73;;
249;SDS011;109;19.806;-70.704;2023-02-03T08:03:27;10.63;;;2.83;;
249;SDS011;109;19.806;-70.704;2023-02-03T08:05:53;10.13;;;2.73;;
249;SDS011;109;19.806;-70.704;2023-02-03T08:08:33;14.33;;;3.30;;
249;SDS011;109;19.806;-70.704;2023-02-03T08:11:00;13.57;;;3.03;;
249;SDS011;109;19.806;-70.704;2023-02-03T08:13:48;13.07;;;2.70;;
249;SDS011;109;19.806;-70.704;2023-02-03T08:16:21;10.20;;;3.20;;
249;SDS011;109;19.806;-70.704;2023-02-03T08:19:02;7.13;;;2.77;;
249;SDS011;109;19.806;-70.704;2023-02-03T08:21:28;7.90;;;2.63;;
249;SDS011;109;19.806;-70.704;2023-02-03T08:24:08;6.27;;;2.47;;
249;SDS011;109;19.806;-70.704;2023-02-03T08:26:35;5.30;;;2.37;;
249;SDS011;109;19.806;-70.704;2023-02-03T08:29:15;10.10;;;2.50;;
249;SDS011;109;19.806;-70.704;2023-02-03T08:31:41;5.13;;;2.47;;
249;SDS011;109;19.806;-70.704;2023-02-03T08:34:29;7.93;;;2.37;;
249;SDS011;109;19.806;-70.704;2023-02-03T08:37:02;15.60;;;2.80;;
249;SDS011;109;19.806;-70.704;2023-02-03T08:39:42;12.20;;;3.27;;
249;SDS011;109;19.806;-70.704;2023-02-03T08:42:09;9.50;;;2.80;;
249;SDS011;109;19.806;-70.704;2023-02-03T08:44:49;10.97;;;2.37;;
249;SDS011;109;19.806;-70.704;2023-02-03T08:47:15;13.23;;;2.20;;
249;SDS011;109;19.806;-70.704;2023-02-03T08:49:56;7.17;;;2.30;;
249;SDS011;109;19.806;-70.704;2023-02-03T08:52:22;9.00;;;3.00;;
249;SDS011;109;19.806;-70.704;2023-02-03T08:55:02;10.20;;;2.60;;
249;SDS011;109;19.806;-70.704;2023-02-03T08:57:35;7.43;;;2.40;;
249;SDS011;109;19.806;-70.704;2023-02-03T09:00:23;14.13;;;2.80;;
249;SDS011;109;19.806;-70.704;2023-02-03T09:02:56;9.97;;;2.80;;
249;SDS011;109;19.806;-70.704;2023-02-03T09:05:37;8.33;;;3.57;;
249;SDS011;109;19.806;-70.704;2023-02-03T09:08:17;8.07;;;2.23;;
249;SDS011;109;19.806;-70.704;2023-02-03T09:10:44;11.60;;;2.53;;
249;SDS011;109;19.806;-70.704;2023-02-03T09:13:23;8.07;;;2.60;;
249;SDS011;109;19.806;-70.704;2023-02-03T09:15:50;8.20;;;2.63;;
249;SDS011;109;19.806;-70.704;2023-02-03T09:18:30;8.47;;;2.30;;
249;SDS011;109;19.806;-70.704;2023-02-03T09:21:04;7.87;;;2.43;;
249;SDS011;109;19.806;-70.704;2023-02-03T09:23:49;12.60;;;2.90;;
249;SDS011;109;19.806;-70.704;2023-02-03T09:26:16;13.40;;;2.80;;
249;SDS011;109;19.806;-70.704;2023-02-03T09:28:56;9.83;;;2.80;;
249;SDS011;109;19.806;-70.704;2023-02-03T09:31:23;9.70;;;3.00;;
249;SDS011;109;19.806;-70.704;2023-02-03T09:34:09;10.47;;;2.50;;
249;SDS011;109;19.806;-70.704;2023-02-03T09:36:49;13.27;;;3.00;;
249;SDS011;109;19.806;-70.704;2023-02-03T09:39:30;17.30;;;2.63;;
249;SDS011;109;19.806;-70.704;2023-02-03T09:48:05;10.90;;;3.20;;
249;SDS011;109;19.806;-70.704;2023-02-03T09:50:54;32.97;;;3.63;;
249;SDS011;109;19.806;-70.704;2023-02-03T09:53:36;10.63;;;2.60;;
249;SDS011;109;19.806;-70.704;2023-02-03T09:56:28;12.63;;;3.47;;
249;SDS011;109;19.806;-70.704;2023-02-03T09:59:11;7.53;;;3.00;;
249;SDS011;109;19.806;-70.704;2023-02-03T10:01:57;10.73;;;2.97;;
249;SDS011;109;19.806;-70.704;2023-02-03T10:05:05;13.70;;;2.70;;
249;SDS011;109;19.806;-70.704;2023-02-03T10:07:58;7.57;;;2.63;;
249;SDS011;109;19.806;-70.704;2023-02-03T10:10:53;11.90;;;3.90;;
249;SDS011;109;19.806;-70.704;2023-02-03T10:14:55;13.90;;;2.93;;
249;SDS011;109;19.806;-70.704;2023-02-03T10:17:51;6.17;;;2.70;;
249;SDS011;109;19.806;-70.704;2023-02-03T10:22:49;9.97;;;2.83;;
249;SDS011;109;19.806;-70.704;2023-02-03T10:25:33;6.10;;;2.77;;
249;SDS011;109;19.806;-70.704;2023-02-03T10:30:59;16.00;;;4.57;;
249;SDS011;109;19.806;-70.704;2023-02-03T10:33:54;15.37;;;3.23;;
249;SDS011;109;19.806;-70.704;2023-02-03T10:36:45;6.23;;;2.70;;
249;SDS011;109;19.806;-70.704;2023-02-03T10:40:03;10.23;;;2.90;;
249;SDS011;109;19.806;-70.704;2023-02-03T10:42:37;14.17;;;3.20;;
249;SDS011;109;19.806;-70.704;2023-02-03T10:45:29;9.00;;;3.40;;
249;SDS011;109;19.806;-70.704;2023-02-03T10:48:15;14.80;;;3.03;;
249;SDS011;109;19.806;-70.704;2023-02-03T10:50:45;22.10;;;3.60;;
249;SDS011;109;19.806;-70.704;2023-02-03T10:53:32;12.47;;;3.37;;
249;SDS011;109;19.806;-70.704;2023-02-03T10:56:02;19.53;;;4.37;;
249;SDS011;109;19.806;-70.704;2023-02-03T10:58:38;15.77;;;4.00;;
249;SDS011;109;19.806;-70.704;2023-02-03T11:01:12;14.47;;;4.20;;
249;SDS011;109;19.806;-70.704;2023-02-03T11:03:41;10.37;;;3.30;;
249;SDS011;109;19.806;-70.704;2023-02-03T11:06:29;11.80;;;3.27;;
249;SDS011;109;19.806;-70.704;2023-02-03T11:08:57;13.63;;;3.10;;
249;SDS011;109;19.806;-70.704;2023-02-03T11:11:26;13.60;;;3.40;;
249;SDS011;109;19.806;-70.704;2023-02-03T11:16:28;13.40;;;3.20;;
249;SDS011;109;19.806;-70.704;2023-02-03T11:19:14;11.60;;;3.17;;
249;SDS011;109;19.806;-70.704;2023-02-03T11:21:47;10.63;;;3.77;;
249;SDS011;109;19.806;-70.704;2023-02-03T11:24:27;15.00;;;3.37;;
249;SDS011;109;19.806;-70.704;2023-02-03T11:27:02;11.20;;;3.17;;
249;SDS011;109;19.806;-70.704;2023-02-03T11:29:47;17.87;;;3.77;;
249;SDS011;109;19.806;-70.704;2023-02-03T11:32:24;10.40;;;2.90;;
249;SDS011;109;19.806;-70.704;2023-02-03T11:35:20;9.10;;;2.57;;
249;SDS011;109;19.806;-70.704;2023-02-03T11:37:51;10.03;;;3.10;;
249;SDS011;109;19.806;-70.704;2023-02-03T11:40:26;13.23;;;3.50;;
249;SDS011;109;19.806;-70.704;2023-02-03T11:45:28;7.43;;;2.93;;
249;SDS011;109;19.806;-70.704;2023-02-03T12:10:11;10.00;;;4.30;;
249;SDS011;109;19.806;-70.704;2023-02-03T12:21:32;10.47;;;3.77;;
249;SDS011;109;19.806;-70.704;2023-02-03T12:24:18;9.63;;;3.50;;
249;SDS011;109;19.806;-70.704;2023-02-03T12:29:44;13.00;;;3.70;;
249;SDS011;109;19.806;-70.704;2023-02-03T12:32:20;16.13;;;4.40;;
249;SDS011;109;19.806;-70.704;2023-02-03T12:35:12;16.97;;;7.97;;
249;SDS011;109;19.806;-70.704;2023-02-03T12:37:55;17.50;;;10.20;;
249;SDS011;109;19.806;-70.704;2023-02-03T12:48:56;15.47;;;9.17;;
249;SDS011;109;19.806;-70.704;2023-02-03T12:51:45;8.90;;;6.17;;
249;SDS011;109;19.806;-70.704;2023-02-03T13:03:15;13.27;;;4.30;;
249;SDS011;109;19.806;-70.704;2023-02-03T13:05:50;8.60;;;3.90;;
249;SDS011;109;19.806;-70.704;2023-02-03T13:11:47;13.33;;;4.30;;
249;SDS011;109;19.806;-70.704;2023-02-03T13:17:43;12.97;;;4.27;;
249;SDS011;109;19.806;-70.704;2023-02-03T13:19:59;15.33;;;4.73;;
249;SDS011;109;19.806;-70.704;2023-02-03T13:22:29;13.40;;;5.33;;
249;SDS011;109;19.806;-70.704;2023-02-03T13:25:08;8.03;;;4.53;;
249;SDS011;109;19.806;-70.704;2023-02-03T13:33:29;7.27;;;3.80;;
249;SDS011;109;19.806;-70.704;2023-02-03T13:36:19;12.90;;;4.37;;
249;SDS011;109;19.806;-70.704;2023-02-03T13:39:16;12.90;;;3.60;;
249;SDS011;109;19.806;-70.704;2023-02-03T13:42:21;13.23;;;3.80;;
249;SDS011;109;19.806;-70.704;2023-02-03T13:45:08;16.47;;;5.40;;
249;SDS011;109;19.806;-70.704;2023-02-03T13:47:51;11.27;;;4.00;;
249;SDS011;109;19.806;-70.704;2023-02-03T13:50:25;11.73;;;5.20;;
249;SDS011;109;19.806;-70.704;2023-02-03T13:55:40;10.47;;;3.53;;
249;SDS011;109;19.806;-70.704;2023-02-03T13:58:25;9.83;;;3.43;;
249;SDS011;109;19.806;-70.704;2023-02-03T14:00:58;17.23;;;3.40;;
249;SDS011;109;19.806;-70.704;2023-02-03T14:05:52;18.17;;;5.33;;
249;SDS011;109;19.806;-70.704;2023-02-03T14:14:42;11.23;;;3.80;;
249;SDS011;109;19.806;-70.704;2023-02-03T14:16:46;12.80;;;4.13;;
249;SDS011;109;19.806;-70.704;2023-02-03T14:21:57;21.07;;;4.23;;
249;SDS011;109;19.806;-70.704;2023-02-03T14:24:41;12.00;;;3.73;;
249;SDS011;109;19.806;-70.704;2023-02-03T14:27:21;11.20;;;3.70;;
249;SDS011;109;19.806;-70.704;2023-02-03T14:30:07;12.90;;;3.50;;
249;SDS011;109;19.806;-70.704;2023-02-03T14:33:19;8.93;;;3.27;;
249;SDS011;109;19.806;-70.704;2023-02-03T14:35:31;10.17;;;3.10;;
249;SDS011;109;19.806;-70.704;2023-02-03T14:38:19;12.90;;;3.83;;
249;SDS011;109;19.806;-70.704;2023-02-03T14:43:33;14.03;;;3.87;;
249;SDS011;109;19.806;-70.704;2023-02-03T14:49:17;14.00;;;3.20;;
249;SDS011;109;19.806;-70.704;2023-02-03T15:08:29;20.70;;;3.33;;
249;SDS011;109;19.806;-70.704;2023-02-03T15:11:22;8.10;;;2.40;;
249;SDS011;109;19.806;-70.704;2023-02-03T15:13:50;9.70;;;2.03;;
249;SDS011;109;19.806;-70.704;2023-02-03T15:16:18;11.33;;;2.43;;
249;SDS011;109;19.806;-70.704;2023-02-03T15:18:57;19.70;;;2.97;;
249;SDS011;109;19.806;-70.704;2023-02-03T15:21:25;10.17;;;2.97;;
249;SDS011;109;19.806;-70.704;2023-02-03T15:23:52;31.43;;;3.93;;
249;SDS011;109;19.806;-70.704;2023-02-03T15:26:20;14.13;;;3.03;;
249;SDS011;109;19.806;-70.704;2023-02-03T15:28:55;25.70;;;3.50;;
249;SDS011;109;19.806;-70.704;2023-02-03T15:31:30;11.90;;;2.90;;
249;SDS011;109;19.806;-70.704;2023-02-03T15:36:53;11.10;;;3.23;;
249;SDS011;109;19.806;-70.704;2023-02-03T15:42:00;19.30;;;3.50;;
249;SDS011;109;19.806;-70.704;2023-02-03T15:44:35;9.97;;;3.67;;
249;SDS011;109;19.806;-70.704;2023-02-03T15:47:16;16.03;;;3.67;;
249;SDS011;109;19.806;-70.704;2023-02-03T15:49:50;11.67;;;3.20;;
249;SDS011;109;19.806;-70.704;2023-02-03T15:52:22;15.07;;;3.60;;
249;SDS011;109;19.806;-70.704;2023-02-03T15:54:52;16.93;;;4.37;;
249;SDS011;109;19.806;-70.704;2023-02-03T15:57:28;15.60;;;3.63;;
249;SDS011;109;19.806;-70.704;2023-02-03T15:59:59;18.43;;;4.60;;
249;SDS011;109;19.806;-70.704;2023-02-03T16:02:41;16.00;;;3.07;;
249;SDS011;109;19.806;-70.704;2023-02-03T16:05:32;39.60;;;6.43;;
249;SDS011;109;19.806;-70.704;2023-02-03T16:10:59;26.97;;;3.40;;
249;SDS011;109;19.806;-70.704;2023-02-03T16:13:26;19.03;;;3.70;;
249;SDS011;109;19.806;-70.704;2023-02-03T16:16:02;19.07;;;3.97;;
249;SDS011;109;19.806;-70.704;2023-02-03T16:18:35;19.30;;;3.63;;
249;SDS011;109;19.806;-70.704;2023-02-03T16:21:03;21.13;;;3.50;;
249;SDS011;109;19.806;-70.704;2023-02-03T16:23:30;20.83;;;3.20;;
249;SDS011;109;19.806;-70.704;2023-02-03T16:26:04;24.10;;;3.97;;
249;SDS011;109;19.806;-70.704;2023-02-03T16:28:54;30.50;;;4.03;;
249;SDS011;109;19.806;-70.704;2023-02-03T16:31:48;9.60;;;2.77;;
249;SDS011;109;19.806;-70.704;2023-02-03T16:34:33;25.20;;;4.17;;
249;SDS011;109;19.806;-70.704;2023-02-03T16:37:31;14.83;;;3.00;;
249;SDS011;109;19.806;-70.704;2023-02-03T16:40:19;21.90;;;3.87;;
249;SDS011;109;19.806;-70.704;2023-02-03T16:43:07;16.43;;;3.43;;
249;SDS011;109;19.806;-70.704;2023-02-03T16:45:56;17.30;;;2.97;;
249;SDS011;109;19.806;-70.704;2023-02-03T16:48:42;17.87;;;3.83;;
249;SDS011;109;19.806;-70.704;2023-02-03T16:51:28;14.23;;;3.60;;
249;SDS011;109;19.806;-70.704;2023-02-03T16:54:03;26.70;;;4.40;;
249;SDS011;109;19.806;-70.704;2023-02-03T16:56:30;13.47;;;3.00;;
249;SDS011;109;19.806;-70.704;2023-02-03T16:58:57;17.23;;;4.47;;
249;SDS011;109;19.806;-70.704;2023-02-03T17:01:23;16.33;;;4.03;;
249;SDS011;109;19.806;-70.704;2023-02-03T17:03:50;19.67;;;3.97;;
249;SDS011;109;19.806;-70.704;2023-02-03T17:06:17;17.90;;;3.87;;
249;SDS011;109;19.806;-70.704;2023-02-03T17:08:43;20.93;;;4.27;;
249;SDS011;109;19.806;-70.704;2023-02-03T17:11:14;24.30;;;3.80;;
249;SDS011;109;19.806;-70.704;2023-02-03T17:13:43;11.70;;;2.87;;
249;SDS011;109;19.806;-70.704;2023-02-03T17:16:12;14.43;;;3.40;;
249;SDS011;109;19.806;-70.704;2023-02-03T17:18:41;16.30;;;3.07;;
249;SDS011;109;19.806;-70.704;2023-02-03T17:21:10;16.57;;;3.13;;
249;SDS011;109;19.806;-70.704;2023-02-03T17:23:41;23.37;;;4.53;;
249;SDS011;109;19.806;-70.704;2023-02-03T17:26:08;23.40;;;4.03;;
249;SDS011;109;19.806;-70.704;2023-02-03T17:28:35;30.37;;;4.60;;
249;SDS011;109;19.806;-70.704;2023-02-03T17:31:04;21.00;;;3.37;;
249;SDS011;109;19.806;-70.704;2023-02-03T17:33:32;22.20;;;3.90;;
249;SDS011;109;19.806;-70.704;2023-02-03T17:36:04;15.70;;;3.53;;
249;SDS011;109;19.806;-70.704;2023-02-03T17:38:40;17.20;;;3.30;;
249;SDS011;109;19.806;-70.704;2023-02-03T17:41:12;14.33;;;3.80;;
249;SDS011;109;19.806;-70.704;2023-02-03T17:43:42;15.67;;;3.40;;
249;SDS011;109;19.806;-70.704;2023-02-03T17:46:10;14.60;;;4.60;;
249;SDS011;109;19.806;-70.704;2023-02-03T17:48:37;10.80;;;3.70;;
249;SDS011;109;19.806;-70.704;2023-02-03T17:51:07;17.83;;;3.57;;
249;SDS011;109;19.806;-70.704;2023-02-03T17:53:36;13.27;;;3.20;;
249;SDS011;109;19.806;-70.704;2023-02-03T17:56:07;12.30;;;3.50;;
249;SDS011;109;19.806;-70.704;2023-02-03T17:58:35;9.27;;;3.27;;
249;SDS011;109;19.806;-70.704;2023-02-03T18:01:08;9.03;;;2.93;;
249;SDS011;109;19.806;-70.704;2023-02-03T18:03:43;10.00;;;2.93;;
249;SDS011;109;19.806;-70.704;2023-02-03T18:06:11;10.60;;;2.67;;
249;SDS011;109;19.806;-70.704;2023-02-03T18:08:39;9.70;;;2.40;;
249;SDS011;109;19.806;-70.704;2023-02-03T18:11:06;7.53;;;2.43;;
249;SDS011;109;19.806;-70.704;2023-02-03T18:13:37;36.27;;;3.60;;
249;SDS011;109;19.806;-70.704;2023-02-03T18:16:05;15.07;;;2.70;;
249;SDS011;109;19.806;-70.704;2023-02-03T18:18:33;12.07;;;2.40;;
249;SDS011;109;19.806;-70.704;2023-02-03T18:21:03;13.87;;;2.40;;
249;SDS011;109;19.806;-70.704;2023-02-03T18:23:31;10.67;;;2.20;;
249;SDS011;109;19.806;-70.704;2023-02-03T18:25:58;10.60;;;2.10;;
249;SDS011;109;19.806;-70.704;2023-02-03T18:28:25;4.63;;;2.00;;
249;SDS011;109;19.806;-70.704;2023-02-03T18:30:56;6.77;;;2.53;;